createdAt,value
2022-11-20T00:01:41.132Z,99208.50
2022-11-20T00:04:09.191Z,99207.69
2022-11-20T00:06:36.146Z,99203.25
2022-11-20T00:09:03.236Z,99206.41
2022-11-20T00:11:30.829Z,99207.38
2022-11-20T00:13:58.347Z,99216.94
2022-11-20T00:16:26.062Z,99215.81
2022-11-20T00:18:53.086Z,99223.22
2022-11-20T00:21:21.947Z,99214.16
2022-11-20T00:23:49.482Z,99219.00
2022-11-20T00:26:18.148Z,99220.81
2022-11-20T00:28:45.604Z,99217.34
2022-11-20T00:31:13.502Z,99220.13
2022-11-20T00:33:40.374Z,99219.31
2022-11-20T00:36:08.389Z,99217.81
2022-11-20T00:38:35.461Z,99215.31
2022-11-20T00:41:03.153Z,99215.44
2022-11-20T00:43:30.138Z,99220.56
2022-11-20T00:45:58.101Z,99207.53
2022-11-20T00:48:25.021Z,99217.81
2022-11-20T00:50:52.016Z,99212.91
2022-11-20T00:53:18.946Z,99218.31
2022-11-20T00:56:06.027Z,99210.16
2022-11-20T00:58:37.443Z,99212.78
2022-11-20T01:01:05.506Z,99217.94
2022-11-20T01:03:33.357Z,99220.72
2022-11-20T01:06:11.335Z,99221.25
2022-11-20T01:08:38.387Z,99225.41
2022-11-20T01:11:08.923Z,99218.47
2022-11-20T01:13:38.718Z,99218.47
2022-11-20T01:16:10.324Z,99217.63
2022-11-20T01:18:37.863Z,99221.94
2022-11-20T01:21:05.997Z,99218.63
2022-11-20T01:23:33.599Z,99216.81
2022-11-20T01:26:01.433Z,99222.09
2022-11-20T01:28:28.329Z,99218.63
2022-11-20T01:30:55.125Z,99227.22
2022-11-20T01:33:22.096Z,99222.91
2022-11-20T01:35:49.043Z,99226.38
2022-11-20T01:38:18.889Z,99220.81
2022-11-20T01:40:45.916Z,99225.25
2022-11-20T01:43:26.702Z,99228.75
2022-11-20T01:46:01.214Z,99230.69
2022-11-20T01:48:30.455Z,99237.31
2022-11-20T01:50:57.346Z,99236.78
2022-11-20T01:53:26.311Z,99238.44
2022-11-20T01:55:54.119Z,99240.41
2022-11-20T01:58:21.751Z,99251.25
2022-11-20T02:00:48.631Z,99252.66
2022-11-20T02:03:17.009Z,99260.88
2022-11-20T02:05:55.207Z,99257.41
2022-11-20T02:08:22.122Z,99267.72
2022-11-20T02:10:48.932Z,99269.97
2022-11-20T02:13:34.821Z,99262.88
2022-11-20T02:16:02.211Z,99271.78
2022-11-20T02:18:28.995Z,99268.59
2022-11-20T02:20:57.866Z,99272.22
2022-11-20T02:23:27.817Z,99280.13
2022-11-20T02:25:54.570Z,99269.03
2022-11-20T02:28:21.553Z,99270.44
2022-11-20T02:30:48.449Z,99278.50
2022-11-20T02:33:15.317Z,99283.91
2022-11-20T02:35:44.945Z,99285.03
2022-11-20T02:38:11.666Z,99284.34
2022-11-20T02:40:38.452Z,99284.78
2022-11-20T02:43:05.406Z,99282.59
2022-11-20T02:45:32.760Z,99286.72
2022-11-20T02:47:59.597Z,99289.38
2022-11-20T02:50:26.515Z,99293.81
2022-11-20T02:52:53.358Z,99285.34
2022-11-20T02:55:20.126Z,99284.66
2022-11-20T02:57:46.999Z,99287.16
2022-11-20T03:00:14.101Z,99286.34
2022-11-20T03:02:40.867Z,99288.81
2022-11-20T03:05:07.954Z,99281.75
2022-11-20T03:07:34.956Z,99290.31
2022-11-20T03:10:01.849Z,99296.72
2022-11-20T03:12:29.790Z,99295.06
2022-11-20T03:14:56.552Z,99289.25
2022-11-20T03:17:23.831Z,99285.63
2022-11-20T03:19:50.814Z,99290.91
2022-11-20T03:22:17.542Z,99295.66
2022-11-20T03:24:44.290Z,99299.25
2022-11-20T03:27:11.971Z,99297.16
2022-11-20T03:29:39.137Z,99289.94
2022-11-20T03:32:06.091Z,99302.28
2022-11-20T03:34:33.075Z,99297.31
2022-11-20T03:36:59.886Z,99303.41
2022-11-20T03:39:27.578Z,99306.31
2022-11-20T03:41:54.674Z,99307.31
2022-11-20T03:44:22.274Z,99306.19
2022-11-20T03:46:49.033Z,99312.00
2022-11-20T03:49:15.972Z,99307.03
2022-11-20T03:51:44.531Z,99314.22
2022-11-20T03:54:11.390Z,99324.78
2022-11-20T03:56:38.830Z,99318.38
2022-11-20T03:59:05.728Z,99317.84
2022-11-20T04:01:33.531Z,99319.50
2022-11-20T04:04:01.481Z,99324.47
2022-11-20T04:06:29.570Z,99327.28
2022-11-20T04:08:56.944Z,99335.84
2022-11-20T04:11:25.062Z,99329.91
2022-11-20T04:13:56.025Z,99333.50
2022-11-20T04:16:23.757Z,99335.44
2022-11-20T04:18:54.529Z,99348.78
2022-11-20T04:21:21.523Z,99352.94
2022-11-20T04:23:48.959Z,99354.47
2022-11-20T04:26:15.780Z,99354.31
2022-11-20T04:28:43.336Z,99350.56
2022-11-20T04:31:11.603Z,99348.06
2022-11-20T04:33:38.541Z,99345.56
2022-11-20T04:36:11.219Z,99347.25
2022-11-20T04:38:38.133Z,99344.75
2022-11-20T04:41:06.145Z,99353.06
2022-11-20T04:43:33.314Z,99364.13
2022-11-20T04:46:00.202Z,99371.09
2022-11-20T04:48:27.609Z,99376.34
2022-11-20T04:50:54.509Z,99380.94
2022-11-20T04:53:21.519Z,99385.22
2022-11-20T04:55:48.524Z,99392.88
2022-11-20T04:58:15.419Z,99396.88
2022-11-20T05:00:44.930Z,99392.59
2022-11-20T05:03:12.111Z,99397.84
2022-11-20T05:05:46.530Z,99405.19
2022-11-20T05:08:13.492Z,99406.19
2022-11-20T05:10:40.428Z,99394.66
2022-11-20T05:13:07.286Z,99402.84
2022-11-20T05:15:34.207Z,99406.88
2022-11-20T05:18:01.210Z,99412.84
2022-11-20T05:20:28.060Z,99413.69
2022-11-20T05:22:58.511Z,99416.31
2022-11-20T05:25:32.767Z,99419.09
2022-11-20T05:28:00.995Z,99427.00
2022-11-20T05:30:27.841Z,99427.69
2022-11-20T05:32:55.125Z,99433.38
2022-11-20T05:35:22.133Z,99427.00
2022-11-20T05:37:57.355Z,99451.13
2022-11-20T05:40:24.221Z,99440.44
2022-11-20T05:42:51.238Z,99435.06
2022-11-20T05:45:19.350Z,99449.88
2022-11-20T05:47:46.441Z,99452.09
2022-11-20T05:50:14.551Z,99451.69
2022-11-20T05:52:41.670Z,99444.31
2022-11-20T05:55:08.683Z,99451.94
2022-11-20T05:57:35.544Z,99463.31
2022-11-20T06:00:05.730Z,99463.06
2022-11-20T06:02:35.521Z,99460.13
2022-11-20T06:05:04.968Z,99468.19
2022-11-20T06:07:31.908Z,99477.63
2022-11-20T06:09:58.825Z,99494.13
2022-11-20T06:12:25.802Z,99492.91
2022-11-20T06:14:52.733Z,99502.03
2022-11-20T06:17:22.211Z,99510.09
2022-11-20T06:19:49.157Z,99499.53
2022-11-20T06:22:16.122Z,99512.59
2022-11-20T06:24:42.935Z,99504.25
2022-11-20T06:27:09.896Z,99505.22
2022-11-20T06:29:38.276Z,99516.06
2022-11-20T06:32:05.423Z,99522.03
2022-11-20T06:34:35.766Z,99512.19
2022-11-20T06:39:46.390Z,99514.53
2022-11-20T06:42:13.449Z,99508.97
2022-11-20T06:44:40.252Z,99500.81
2022-11-20T06:47:07.227Z,99494.13
2022-11-20T06:49:35.519Z,99495.94
2022-11-20T06:52:02.657Z,99494.66
2022-11-20T06:54:29.622Z,99497.56
2022-11-20T06:56:56.641Z,99494.50
2022-11-20T06:59:24.162Z,99504.50
2022-11-20T07:01:54.160Z,99505.31
2022-11-20T07:04:21.093Z,99504.22
2022-11-20T07:06:47.993Z,99505.59
2022-11-20T07:09:14.851Z,99505.47
2022-11-20T07:11:43.493Z,99506.13
2022-11-20T07:14:10.439Z,99518.09
2022-11-20T07:16:37.365Z,99519.19
2022-11-20T07:19:04.266Z,99520.00
2022-11-20T07:21:31.274Z,99521.53
2022-11-20T07:24:02.941Z,99529.72
2022-11-20T07:26:39.286Z,99524.97
2022-11-20T07:29:06.624Z,99523.22
2022-11-20T07:31:35.447Z,99516.13
2022-11-20T07:34:02.437Z,99517.66
2022-11-20T07:36:34.240Z,99522.09
2022-11-20T07:39:01.414Z,99535.69
2022-11-20T07:41:28.856Z,99537.34
2022-11-20T07:43:55.780Z,99538.34
2022-11-20T07:46:25.180Z,99545.56
2022-11-20T07:48:54.866Z,99541.94
2022-11-20T07:51:27.018Z,99539.16
2022-11-20T07:54:04.381Z,99541.38
2022-11-20T07:56:31.538Z,99549.53
2022-11-20T07:58:58.466Z,99547.31
2022-11-20T08:01:25.517Z,99540.78
2022-11-20T08:03:55.160Z,99530.75
2022-11-20T08:06:26.957Z,99542.19
2022-11-20T08:08:53.809Z,99555.09
2022-11-20T08:11:39.449Z,99557.13
2022-11-20T08:14:16.488Z,99549.31
2022-11-20T08:16:46.413Z,99552.66
2022-11-20T08:19:15.660Z,99552.38
2022-11-20T08:21:42.696Z,99563.63
2022-11-20T08:24:24.825Z,99563.78
2022-11-20T08:27:00.825Z,99573.75
2022-11-20T08:29:30.461Z,99568.47
2022-11-20T08:31:57.332Z,99569.03
2022-11-20T08:34:24.457Z,99573.31
2022-11-20T08:36:51.643Z,99574.72
2022-11-20T08:39:18.605Z,99565.31
2022-11-20T08:41:45.591Z,99572.41
2022-11-20T08:44:12.592Z,99582.66
2022-11-20T08:47:11.494Z,99587.13
2022-11-20T08:49:36.616Z,99589.38
2022-11-20T08:52:03.605Z,99603.72
2022-11-20T08:54:30.504Z,99612.50
2022-11-20T08:56:57.598Z,99616.97
2022-11-20T08:59:50.737Z,99622.66
2022-11-20T09:02:14.843Z,99621.56
2022-11-20T09:04:41.879Z,99630.47
2022-11-20T09:07:08.892Z,99635.84
2022-11-20T09:09:35.945Z,99633.50
2022-11-20T09:12:03.016Z,99638.94
2022-11-20T09:14:31.207Z,99644.91
2022-11-20T09:16:58.121Z,99637.41
2022-11-20T09:19:41.091Z,99651.47
2022-11-20T09:22:08.292Z,99657.16
2022-11-20T09:24:35.265Z,99645.88
2022-11-20T09:27:05.684Z,99659.91
2022-11-20T09:29:33.391Z,99674.38
2022-11-20T09:32:00.455Z,99680.06
2022-11-20T09:34:27.363Z,99672.97
2022-11-20T09:37:03.181Z,99673.28
2022-11-20T09:39:34.137Z,99672.56
2022-11-20T09:42:07.243Z,99671.72
2022-11-20T09:44:34.174Z,99669.34
2022-11-20T09:47:01.255Z,99667.56
2022-11-20T09:49:32.816Z,99667.97
2022-11-20T09:54:42.665Z,99667.81
2022-11-20T09:57:13.508Z,99672.94
2022-11-20T09:59:41.492Z,99688.38
2022-11-20T10:02:23.578Z,99684.22
2022-11-20T10:05:09.331Z,99678.09
2022-11-20T10:07:40.789Z,99677.00
2022-11-20T10:10:15.139Z,99686.19
2022-11-20T10:13:00.879Z,99691.72
2022-11-20T10:15:45.876Z,99696.47
2022-11-20T10:18:19.790Z,99694.22
2022-11-20T10:20:46.543Z,99696.34
2022-11-20T10:23:26.209Z,99694.81
2022-11-20T10:26:03.879Z,99688.41
2022-11-20T10:28:36.936Z,99686.88
2022-11-20T10:31:04.548Z,99697.44
2022-11-20T10:33:50.056Z,99689.94
2022-11-20T10:36:24.641Z,99706.03
2022-11-20T10:38:54.094Z,99698.69
2022-11-20T10:41:30.889Z,99703.69
2022-11-20T10:44:07.101Z,99714.25
2022-11-20T10:46:38.722Z,99718.13
2022-11-20T10:49:06.625Z,99721.75
2022-11-20T10:51:33.566Z,99728.28
2022-11-20T10:54:21.471Z,99718.81
2022-11-20T10:56:50.566Z,99714.81
2022-11-20T10:59:29.609Z,99708.00
2022-11-20T11:01:56.426Z,99729.94
2022-11-20T11:04:26.031Z,99730.78
2022-11-20T11:06:53.848Z,99733.16
2022-11-20T11:09:22.079Z,99733.44
2022-11-20T11:11:49.031Z,99739.25
2022-11-20T11:14:16.559Z,99740.22
2022-11-20T11:16:55.213Z,99741.91
2022-11-20T11:19:22.785Z,99748.53
2022-11-20T11:21:57.649Z,99738.97
2022-11-20T11:24:43.038Z,99739.78
2022-11-20T11:27:17.125Z,99743.25
2022-11-20T11:29:44.932Z,99744.78
2022-11-20T11:32:24.270Z,99744.09
2022-11-20T11:35:04.446Z,99741.72
2022-11-20T11:37:38.164Z,99740.06
2022-11-20T11:42:56.590Z,99733.13
2022-11-20T11:45:23.976Z,99737.81
2022-11-20T11:47:50.997Z,99740.88
2022-11-20T11:50:28.600Z,99753.94
2022-11-20T11:52:58.430Z,99752.69
2022-11-20T11:55:30.797Z,99747.13
2022-11-20T11:58:23.987Z,99752.94
2022-11-20T12:01:09.034Z,99751.41
2022-11-20T12:03:39.818Z,99753.38
2022-11-20T12:06:15.645Z,99751.69
2022-11-20T12:08:53.089Z,99755.31
2022-11-20T12:11:32.423Z,99753.91
2022-11-20T12:14:02.963Z,99764.72
2022-11-20T12:16:30.418Z,99763.31
2022-11-20T12:18:58.463Z,99750.56
2022-11-20T12:21:37.728Z,99744.19
2022-11-20T12:24:32.783Z,99751.38
2022-11-20T12:26:59.906Z,99745.41
2022-11-20T12:29:34.325Z,99740.53
2022-11-20T12:32:01.176Z,99746.34
2022-11-20T12:34:34.234Z,99751.06
2022-11-20T12:37:08.165Z,99752.19
2022-11-20T12:39:36.060Z,99757.19
2022-11-20T12:42:24.820Z,99750.25
2022-11-20T12:45:10.439Z,99756.91
2022-11-20T12:47:49.578Z,99761.34
2022-11-20T12:50:19.663Z,99761.94
2022-11-20T12:52:53.744Z,99763.75
2022-11-20T12:55:44.900Z,99768.84
2022-11-20T12:58:27.983Z,99781.47
2022-11-20T13:01:01.702Z,99783.66
2022-11-20T13:03:58.418Z,99775.75
2022-11-20T13:06:25.284Z,99770.59
2022-11-20T13:08:55.879Z,99778.50
2022-11-20T13:11:28.872Z,99771.84
2022-11-20T13:14:15.584Z,99763.50
2022-11-20T13:16:47.317Z,99767.41
2022-11-20T13:19:15.140Z,99769.34
2022-11-20T13:21:47.550Z,99784.31
2022-11-20T13:24:25.698Z,99789.59
2022-11-20T13:27:11.424Z,99787.91
2022-11-20T13:29:41.259Z,99795.97
2022-11-20T13:32:15.125Z,99795.25
2022-11-20T13:34:53.852Z,99795.97
2022-11-20T13:37:26.861Z,99785.69
2022-11-20T13:39:53.934Z,99788.19
2022-11-20T13:42:22.049Z,99790.69
2022-11-20T13:44:52.395Z,99789.88
2022-11-20T13:47:31.903Z,99793.19
2022-11-20T13:49:59.894Z,99793.06
2022-11-20T13:52:33.546Z,99800.00
2022-11-20T13:55:22.241Z,99801.81
2022-11-20T13:57:58.002Z,99800.53
2022-11-20T14:00:25.958Z,99800.81
2022-11-20T14:03:14.572Z,99801.50
2022-11-20T14:05:52.499Z,99801.25
2022-11-20T14:08:26.881Z,99808.19
2022-11-20T14:11:03.394Z,99818.44
2022-11-20T14:13:30.519Z,99815.81
2022-11-20T14:16:00.636Z,99822.91
2022-11-20T14:18:28.423Z,99814.88
2022-11-20T14:20:55.348Z,99815.69
2022-11-20T14:23:29.727Z,99823.72
2022-11-20T14:25:57.268Z,99813.19
2022-11-20T14:28:28.996Z,99826.34
2022-11-20T14:30:56.674Z,99827.22
2022-11-20T14:33:26.357Z,99838.97
2022-11-20T14:35:57.359Z,99844.38
2022-11-20T14:38:28.506Z,99847.88
2022-11-20T14:40:57.713Z,99853.00
2022-11-20T14:43:28.462Z,99865.47
2022-11-20T14:46:03.342Z,99850.88
2022-11-20T14:48:40.590Z,99848.97
2022-11-20T14:51:12.260Z,99848.97
2022-11-20T14:53:39.160Z,99840.53
2022-11-20T14:56:06.041Z,99840.06
2022-11-20T14:58:36.034Z,99834.69
2022-11-20T15:01:03.081Z,99827.88
2022-11-20T15:03:34.121Z,99836.72
2022-11-20T15:06:01.432Z,99846.84
2022-11-20T15:08:28.380Z,99851.38
2022-11-20T15:10:55.432Z,99849.47
2022-11-20T15:13:36.136Z,99841.13
2022-11-20T15:16:03.484Z,99834.28
2022-11-20T15:18:42.818Z,99835.56
2022-11-20T15:21:16.595Z,99831.72
2022-11-20T15:23:46.636Z,99834.38
2022-11-20T15:26:35.026Z,99835.72
2022-11-20T15:29:02.495Z,99834.91
2022-11-20T15:31:30.123Z,99834.44
2022-11-20T15:33:57.115Z,99837.59
2022-11-20T15:36:24.127Z,99846.91
2022-11-20T15:41:32.314Z,99837.84
2022-11-20T15:43:59.310Z,99831.16
2022-11-20T15:46:38.885Z,99832.13
2022-11-20T15:49:09.857Z,99830.44
2022-11-20T15:51:37.624Z,99826.84
2022-11-20T15:54:11.321Z,99825.16
2022-11-20T15:56:38.614Z,99828.66
2022-11-20T15:59:05.631Z,99843.50
2022-11-20T16:01:33.285Z,99842.66
2022-11-20T16:04:03.989Z,99846.25
2022-11-20T16:06:31.033Z,99840.66
2022-11-20T16:08:58.165Z,99836.34
2022-11-20T16:11:25.114Z,99826.66
2022-11-20T16:14:10.703Z,99819.72
2022-11-20T16:16:42.698Z,99814.88
2022-11-20T16:22:26.564Z,99808.13
2022-11-20T16:25:18.647Z,99808.84
2022-11-20T16:27:45.751Z,99822.59
2022-11-20T16:30:16.036Z,99826.06
2022-11-20T16:32:58.546Z,99828.69
2022-11-20T16:35:29.588Z,99826.06
2022-11-20T16:37:56.714Z,99825.13
2022-11-20T16:40:23.781Z,99827.88
2022-11-20T16:42:50.852Z,99820.66
2022-11-20T16:45:24.680Z,99823.03
2022-11-20T16:48:05.184Z,99822.66
2022-11-20T16:50:34.224Z,99832.94
2022-11-20T16:53:01.095Z,99829.47
2022-11-20T16:55:28.021Z,99828.38
2022-11-20T16:57:55.272Z,99838.81
2022-11-20T17:00:31.851Z,99835.56
2022-11-20T17:02:59.943Z,99828.75
2022-11-20T17:05:30.463Z,99802.28
2022-11-20T17:07:59.807Z,99802.84
2022-11-20T17:10:31.836Z,99806.06
2022-11-20T17:12:58.858Z,99794.53
2022-11-20T17:15:26.098Z,99790.69
2022-11-20T17:17:57.959Z,99794.72
2022-11-20T17:20:28.459Z,99798.78
2022-11-20T17:22:58.787Z,99811.84
2022-11-20T17:25:35.505Z,99816.53
2022-11-20T17:28:18.880Z,99805.97
2022-11-20T17:30:51.077Z,99814.31
2022-11-20T17:33:20.845Z,99821.28
2022-11-20T17:35:50.715Z,99813.81
2022-11-20T17:38:19.859Z,99820.47
2022-11-20T17:40:46.911Z,99830.31
2022-11-20T17:43:16.409Z,99836.31
2022-11-20T17:48:45.085Z,99828.13
2022-11-20T17:51:14.595Z,99824.94
2022-11-20T17:53:43.793Z,99829.75
2022-11-20T17:59:21.787Z,99833.81
2022-11-20T18:01:48.949Z,99826.19
2022-11-20T18:04:22.253Z,99825.94
2022-11-20T18:06:58.870Z,99829.94
2022-11-20T18:15:23.589Z,99826.03
2022-11-20T18:17:50.574Z,99834.91
2022-11-20T18:20:38.379Z,99831.31
2022-11-20T18:23:06.850Z,99833.94
2022-11-20T18:25:33.942Z,99819.22
2022-11-20T18:28:03.045Z,99819.66
2022-11-20T18:30:32.851Z,99833.41
2022-11-20T18:32:59.945Z,99839.38
2022-11-20T18:35:27.019Z,99836.63
2022-11-20T18:37:56.941Z,99832.34
2022-11-20T18:40:23.787Z,99827.88
2022-11-20T18:43:13.689Z,99826.06
2022-11-20T18:45:43.359Z,99827.44
2022-11-20T18:48:13.807Z,99827.28
2022-11-20T18:51:11.338Z,99828.97
2022-11-20T18:53:59.397Z,99823.56
2022-11-20T18:56:26.475Z,99818.28
2022-11-20T18:58:54.701Z,99812.19
2022-11-20T19:01:25.170Z,99817.56
2022-11-20T19:03:52.231Z,99822.84
2022-11-20T19:06:19.197Z,99810.75
2022-11-20T19:08:46.047Z,99806.78
2022-11-20T19:11:13.271Z,99803.75
2022-11-20T19:13:44.096Z,99793.88
2022-11-20T19:16:18.073Z,99787.50
2022-11-20T19:21:19.558Z,99791.94
2022-11-20T19:23:56.199Z,99800.97
2022-11-20T19:26:23.559Z,99805.00
2022-11-20T19:28:50.550Z,99800.16
2022-11-20T19:31:24.125Z,99794.75
2022-11-20T19:33:55.858Z,99791.16
2022-11-20T19:36:24.389Z,99790.03
2022-11-20T19:38:54.428Z,99787.25
2022-11-20T19:41:29.441Z,99780.19
2022-11-20T19:44:02.384Z,99784.22
2022-11-20T19:46:32.452Z,99793.81
2022-11-20T19:48:59.393Z,99810.34
2022-11-20T19:51:26.944Z,99815.59
2022-11-20T19:53:55.413Z,99813.94
2022-11-20T19:56:23.293Z,99814.06
2022-11-20T19:58:53.141Z,99832.44
2022-11-20T20:01:21.227Z,99837.81
2022-11-20T20:03:48.324Z,99830.75
2022-11-20T20:06:21.007Z,99833.13
2022-11-20T20:08:50.925Z,99827.03
2022-11-20T20:11:18.839Z,99831.31
2022-11-20T20:13:48.491Z,99836.47
2022-11-20T20:16:16.492Z,99843.41
2022-11-20T20:18:43.709Z,99852.16
2022-11-20T20:21:11.563Z,99837.16
2022-11-20T20:23:38.902Z,99824.66
2022-11-20T20:26:06.316Z,99827.56
2022-11-20T20:28:33.419Z,99833.97
2022-11-20T20:31:10.294Z,99831.19
2022-11-20T20:33:40.871Z,99822.19
2022-11-20T20:36:08.433Z,99829.13
2022-11-20T20:38:37.670Z,99840.38
2022-11-20T20:41:04.562Z,99837.84
2022-11-20T20:43:31.742Z,99835.38
2022-11-20T20:45:58.609Z,99826.88
2022-11-20T20:48:28.405Z,99830.09
2022-11-20T20:50:58.305Z,99837.03
2022-11-20T20:53:25.298Z,99850.94
2022-11-20T20:55:55.964Z,99843.97
2022-11-20T20:58:23.075Z,99855.63
2022-11-20T21:00:50.885Z,99858.97
2022-11-20T21:03:18.582Z,99859.69
2022-11-20T21:05:45.835Z,99851.34
2022-11-20T21:08:21.768Z,99853.13
2022-11-20T21:10:49.061Z,99841.16
2022-11-20T21:13:16.052Z,99824.19
2022-11-20T21:15:43.366Z,99824.34
2022-11-20T21:18:10.210Z,99831.28
2022-11-20T21:20:58.153Z,99834.91
2022-11-20T21:23:25.327Z,99839.19
2022-11-20T21:25:52.450Z,99837.53
2022-11-20T21:28:19.316Z,99844.63
2022-11-20T21:30:46.842Z,99842.94
2022-11-20T21:33:13.847Z,99843.09
2022-11-20T21:35:41.597Z,99833.09
2022-11-20T21:38:08.762Z,99821.56
2022-11-20T21:40:35.607Z,99825.06
2022-11-20T21:43:02.474Z,99828.66
2022-11-20T21:45:29.339Z,99822.53
2022-11-20T21:47:56.050Z,99821.72
2022-11-20T21:50:22.858Z,99823.38
2022-11-20T21:52:49.639Z,99830.56
2022-11-20T21:55:16.379Z,99831.28
2022-11-20T21:57:43.224Z,99833.66
2022-11-20T22:00:11.640Z,99832.25
2022-11-20T22:02:39.381Z,99834.19
2022-11-20T22:05:09.566Z,99832.53
2022-11-20T22:07:36.573Z,99834.31
2022-11-20T22:10:03.639Z,99832.38
2022-11-20T22:12:30.603Z,99830.56
2022-11-20T22:14:57.532Z,99819.06
2022-11-20T22:17:44.285Z,99827.81
2022-11-20T22:20:11.731Z,99831.44
2022-11-20T22:22:39.973Z,99837.53
2022-11-20T22:25:07.042Z,99833.22
2022-11-20T22:27:33.875Z,99828.91
2022-11-20T22:30:00.821Z,99821.97
2022-11-20T22:32:27.678Z,99821.13
2022-11-20T22:34:54.450Z,99823.75
2022-11-20T22:37:21.318Z,99828.91
2022-11-20T22:39:48.129Z,99824.19
2022-11-20T22:42:14.929Z,99826.72
2022-11-20T22:44:41.832Z,99828.97
2022-11-20T22:47:11.772Z,99822.97
2022-11-20T22:49:38.607Z,99825.06
2022-11-20T22:52:05.522Z,99813.91
2022-11-20T22:54:32.309Z,99802.53
2022-11-20T22:56:59.181Z,99811.00
2022-11-20T22:59:26.059Z,99800.59
2022-11-20T23:01:52.930Z,99807.81
2022-11-20T23:04:19.804Z,99807.94
2022-11-20T23:06:46.812Z,99804.47
2022-11-20T23:09:13.789Z,99801.13
2022-11-20T23:11:40.699Z,99799.19
2022-11-20T23:14:08.655Z,99788.78
2022-11-20T23:16:35.827Z,99775.59
2022-11-20T23:19:04.200Z,99767.91
2022-11-20T23:21:31.242Z,99766.38
2022-11-20T23:23:58.344Z,99777.94
2022-11-20T23:26:28.365Z,99775.28
2022-11-20T23:28:56.548Z,99784.19
2022-11-20T23:31:23.622Z,99791.13
2022-11-20T23:33:50.714Z,99795.56
2022-11-20T23:36:17.687Z,99801.09
2022-11-20T23:38:44.556Z,99791.13
2022-11-20T23:41:11.934Z,99795.69
2022-11-20T23:43:39.025Z,99785.97
2022-11-20T23:46:06.355Z,99776.28
2022-11-20T23:48:36.802Z,99777.94
2022-11-20T23:51:04.307Z,99774.31
2022-11-20T23:53:31.790Z,99776.00
2022-11-20T23:55:59.808Z,99761.69
2022-11-20T23:58:29.803Z,99765.16
